createdAt,value
2018-06-22T00:02:01.446Z,20.00
2018-06-22T00:04:29.909Z,20.00
2018-06-22T00:06:58.369Z,20.00
2018-06-22T00:09:26.824Z,20.00
2018-06-22T00:11:55.301Z,20.00
2018-06-22T00:14:23.726Z,20.00
2018-06-22T00:16:52.374Z,19.90
2018-06-22T00:19:20.832Z,20.00
2018-06-22T00:21:49.265Z,19.90
2018-06-22T00:24:17.740Z,19.90
2018-06-22T00:26:46.185Z,19.80
2018-06-22T00:29:14.621Z,19.80
2018-06-22T00:31:43.159Z,19.90
2018-06-22T00:36:39.765Z,19.90
2018-06-22T00:39:09.389Z,19.90
2018-06-22T00:41:38.068Z,19.80
2018-06-22T00:44:06.500Z,19.80
2018-06-22T00:46:34.993Z,19.80
2018-06-22T00:49:03.477Z,19.70
2018-06-22T00:51:31.912Z,19.70
2018-06-22T00:54:10.622Z,19.70
2018-06-22T00:59:07.204Z,19.60
2018-06-22T01:01:35.855Z,19.60
2018-06-22T01:04:04.657Z,19.60
2018-06-22T01:06:33.105Z,19.70
2018-06-22T01:09:01.562Z,19.70
2018-06-22T01:11:30.050Z,19.60
2018-06-22T01:13:58.493Z,19.60
2018-06-22T01:16:26.954Z,19.50
2018-06-22T01:18:55.513Z,19.40
2018-06-22T01:21:23.969Z,19.40
2018-06-22T01:23:53.424Z,19.40
2018-06-22T01:26:22.013Z,19.40
2018-06-22T01:28:50.530Z,19.30
2018-06-22T01:31:18.985Z,19.30
2018-06-22T01:33:47.465Z,19.20
2018-06-22T01:36:15.908Z,19.20
2018-06-22T01:38:44.341Z,19.20
2018-06-22T01:41:12.817Z,19.20
2018-06-22T01:43:41.304Z,19.10
2018-06-22T01:46:09.818Z,19.10
2018-06-22T01:48:38.265Z,19.00
2018-06-22T01:51:06.749Z,18.90
2018-06-22T01:53:35.197Z,18.90
2018-06-22T01:56:03.688Z,18.80
2018-06-22T01:58:32.166Z,18.70
2018-06-22T02:01:00.633Z,18.60
2018-06-22T02:03:29.150Z,18.60
2018-06-22T02:05:57.625Z,18.60
2018-06-22T02:08:26.086Z,18.60
2018-06-22T02:10:54.537Z,18.60
2018-06-22T02:13:23.029Z,18.70
2018-06-22T02:15:51.502Z,18.70
2018-06-22T02:18:19.965Z,18.80
2018-06-22T02:20:48.433Z,18.80
2018-06-22T02:23:16.965Z,18.70
2018-06-22T02:25:45.400Z,18.70
2018-06-22T02:28:13.840Z,18.70
2018-06-22T02:30:42.285Z,18.70
2018-06-22T02:33:10.749Z,18.70
2018-06-22T02:35:39.226Z,18.70
2018-06-22T02:38:07.690Z,18.70
2018-06-22T02:40:36.137Z,18.70
2018-06-22T02:43:04.642Z,18.70
2018-06-22T02:45:33.158Z,18.70
2018-06-22T02:48:01.619Z,18.70
2018-06-22T02:50:30.081Z,18.70
2018-06-22T02:52:58.542Z,18.80
2018-06-22T02:57:55.253Z,18.80
2018-06-22T03:00:23.725Z,18.80
2018-06-22T03:02:52.545Z,18.90
2018-06-22T03:05:21.153Z,18.90
2018-06-22T03:10:17.797Z,18.80
2018-06-22T03:12:46.285Z,18.70
2018-06-22T03:15:14.757Z,18.70
2018-06-22T03:17:43.213Z,18.70
2018-06-22T03:20:11.761Z,18.70
2018-06-22T03:22:40.211Z,18.60
2018-06-22T03:25:08.659Z,18.60
2018-06-22T03:27:37.209Z,18.50
2018-06-22T03:30:05.723Z,18.50
2018-06-22T03:32:34.177Z,18.40
2018-06-22T03:35:02.645Z,18.40
2018-06-22T03:37:31.115Z,18.40
2018-06-22T03:39:59.562Z,18.30
2018-06-22T03:42:28.034Z,18.30
2018-06-22T03:44:56.520Z,18.10
2018-06-22T03:47:25.021Z,18.10
2018-06-22T03:52:21.649Z,18.10
2018-06-22T03:54:50.114Z,18.00
2018-06-22T03:57:18.567Z,17.90
2018-06-22T03:59:47.049Z,17.90
2018-06-22T04:02:15.500Z,17.90
2018-06-22T04:04:44.054Z,17.90
2018-06-22T04:07:12.509Z,18.00
2018-06-22T04:09:40.977Z,18.00
2018-06-22T04:12:09.429Z,18.00
2018-06-22T04:14:37.913Z,18.00
2018-06-22T04:19:34.561Z,18.10
2018-06-22T04:22:03.065Z,18.20
2018-06-22T04:24:31.603Z,18.30
2018-06-22T04:26:59.993Z,18.30
2018-06-22T04:29:28.441Z,18.30
2018-06-22T04:31:56.888Z,18.30
2018-06-22T04:36:53.513Z,18.30
2018-06-22T04:39:21.966Z,18.30
2018-06-22T04:41:50.419Z,18.30
2018-06-22T04:44:18.905Z,18.30
2018-06-22T04:46:47.348Z,18.30
2018-06-22T04:54:12.437Z,18.40
2018-06-22T04:56:40.893Z,18.40
2018-06-22T04:59:09.340Z,18.40
2018-06-22T05:04:06.178Z,18.40
2018-06-22T05:06:34.646Z,18.30
2018-06-22T05:09:03.250Z,18.30
2018-06-22T05:11:31.701Z,18.30
2018-06-22T05:14:00.148Z,18.30
2018-06-22T05:16:28.610Z,18.30
2018-06-22T05:21:25.210Z,18.30
2018-06-22T05:23:53.680Z,18.30
2018-06-22T05:26:22.117Z,18.30
2018-06-22T05:28:50.909Z,18.30
2018-06-22T05:31:19.413Z,18.20
2018-06-22T05:33:47.909Z,18.30
2018-06-22T05:36:16.349Z,18.30
2018-06-22T05:38:44.805Z,18.30
2018-06-22T05:41:13.333Z,18.30
2018-06-22T05:43:41.861Z,18.30
2018-06-22T05:46:10.361Z,18.30
2018-06-22T05:48:38.796Z,18.30
2018-06-22T05:51:07.245Z,18.30
2018-06-22T05:53:35.719Z,18.40
2018-06-22T05:56:04.301Z,18.40
2018-06-22T05:58:32.761Z,18.40
2018-06-22T06:01:01.241Z,18.40
2018-06-22T06:03:29.744Z,18.50
2018-06-22T06:05:58.196Z,18.50
2018-06-22T06:08:26.642Z,18.50
2018-06-22T06:10:55.101Z,18.50
2018-06-22T06:13:23.615Z,18.50
2018-06-22T06:15:52.077Z,18.50
2018-06-22T06:18:20.578Z,18.50
2018-06-22T06:20:49.042Z,18.50
2018-06-22T06:23:17.594Z,18.60
2018-06-22T06:25:46.022Z,18.60
2018-06-22T06:28:14.477Z,18.70
2018-06-22T06:30:42.945Z,18.70
2018-06-22T06:33:11.377Z,18.70
2018-06-22T06:35:39.873Z,18.80
2018-06-22T06:38:08.319Z,18.80
2018-06-22T06:40:36.825Z,18.80
2018-06-22T06:43:05.292Z,18.90
2018-06-22T06:45:33.731Z,18.90
2018-06-22T06:48:02.195Z,18.90
2018-06-22T06:50:30.638Z,18.80
2018-06-22T06:52:59.125Z,18.90
2018-06-22T06:55:27.581Z,18.90
2018-06-22T06:57:56.034Z,18.90
2018-06-22T07:02:52.663Z,18.90
2018-06-22T07:05:21.169Z,18.90
2018-06-22T07:07:49.861Z,18.90
2018-06-22T07:10:18.304Z,18.90
2018-06-22T07:12:46.777Z,18.90
2018-06-22T07:15:15.290Z,18.90
2018-06-22T07:17:43.751Z,18.90
2018-06-22T07:20:12.214Z,18.90
2018-06-22T07:22:40.677Z,18.90
2018-06-22T07:25:09.162Z,18.80
2018-06-22T07:27:37.721Z,18.80
2018-06-22T07:30:06.168Z,18.80
2018-06-22T07:32:34.866Z,18.80
2018-06-22T07:35:03.568Z,18.90
2018-06-22T07:37:32.025Z,19.00
2018-06-22T07:40:00.480Z,19.10
2018-06-22T07:42:28.954Z,19.20
2018-06-22T07:44:57.482Z,19.30
2018-06-22T07:47:25.958Z,19.30
2018-06-22T07:49:54.462Z,19.40
2018-06-22T07:52:22.870Z,19.40
2018-06-22T07:54:51.365Z,19.30
2018-06-22T07:57:19.855Z,19.30
2018-06-22T07:59:48.370Z,19.20
2018-06-22T08:02:16.822Z,19.20
2018-06-22T08:04:45.274Z,19.20
2018-06-22T08:07:13.760Z,19.20
2018-06-22T08:09:42.225Z,19.30
2018-06-22T08:12:10.695Z,19.30
2018-06-22T08:16:08.666Z,19.30
2018-06-22T08:18:37.139Z,19.30
2018-06-22T08:23:33.757Z,19.30
2018-06-22T08:26:02.189Z,19.20
2018-06-22T08:28:30.657Z,19.20
2018-06-22T08:30:59.132Z,19.20
2018-06-22T08:33:27.576Z,19.30
2018-06-22T08:35:56.109Z,19.40
2018-06-22T08:38:24.565Z,19.50
2018-06-22T08:40:53.022Z,19.70
2018-06-22T08:43:21.737Z,19.80
2018-06-22T08:45:50.226Z,19.90
2018-06-22T08:48:18.686Z,20.00
2018-06-22T08:50:47.169Z,20.20
2018-06-22T08:53:15.610Z,20.20
2018-06-22T08:55:44.108Z,20.20
2018-06-22T08:58:12.511Z,20.10
2018-06-22T09:00:40.950Z,20.10
2018-06-22T09:03:09.430Z,20.10
2018-06-22T09:05:37.864Z,20.10
2018-06-22T09:08:06.315Z,20.10
2018-06-22T09:10:34.768Z,20.10
2018-06-22T09:13:03.245Z,20.10
2018-06-22T09:15:31.734Z,20.00
2018-06-22T09:18:00.177Z,20.10
2018-06-22T09:20:28.613Z,20.10
2018-06-22T09:22:57.069Z,20.10
2018-06-22T09:25:25.733Z,20.20
2018-06-22T09:27:54.198Z,20.20
2018-06-22T09:30:22.649Z,20.30
2018-06-22T09:32:51.094Z,20.50
2018-06-22T09:35:19.551Z,20.50
2018-06-22T09:37:48.025Z,20.60
2018-06-22T09:40:16.469Z,20.50
2018-06-22T09:42:45.047Z,20.50
2018-06-22T09:45:13.533Z,20.50
2018-06-22T09:47:41.917Z,20.70
2018-06-22T09:50:10.362Z,20.60
2018-06-22T09:52:38.805Z,20.40
2018-06-22T09:55:07.649Z,20.20
2018-06-22T09:57:36.050Z,20.00
2018-06-22T10:00:04.569Z,19.90
2018-06-22T10:02:33.016Z,19.50
2018-06-22T10:05:01.592Z,19.30
2018-06-22T10:07:30.076Z,19.10
2018-06-22T10:09:58.556Z,18.90
2018-06-22T10:12:27.022Z,18.60
2018-06-22T10:14:55.499Z,18.50
2018-06-22T10:17:24.017Z,18.50
2018-06-22T10:19:52.540Z,18.50
2018-06-22T10:22:21.038Z,18.40
2018-06-22T10:24:49.503Z,18.40
2018-06-22T10:27:17.979Z,18.30
2018-06-22T10:29:46.653Z,18.20
2018-06-22T10:32:15.800Z,18.30
2018-06-22T10:34:44.281Z,18.50
2018-06-22T10:37:12.759Z,18.50
2018-06-22T10:39:41.260Z,18.60
2018-06-22T10:42:09.782Z,18.60
2018-06-22T10:44:38.277Z,18.70
2018-06-22T10:47:07.080Z,18.90
2018-06-22T10:49:35.649Z,19.10
2018-06-22T10:52:04.505Z,19.30
2018-06-22T10:54:33.080Z,19.50
2018-06-22T10:57:01.590Z,19.70
2018-06-22T10:59:30.113Z,19.80
2018-06-22T11:01:58.592Z,19.80
2018-06-22T11:04:27.090Z,19.90
2018-06-22T11:06:55.581Z,19.90
2018-06-22T11:09:24.102Z,19.90
2018-06-22T11:11:52.661Z,19.90
2018-06-22T11:14:21.124Z,19.90
2018-06-22T11:16:49.586Z,19.90
2018-06-22T11:19:18.053Z,19.90
2018-06-22T11:21:46.513Z,19.70
2018-06-22T11:24:14.998Z,19.70
2018-06-22T11:26:43.480Z,19.90
2018-06-22T11:29:11.999Z,19.80
2018-06-22T11:31:40.455Z,19.90
2018-06-22T11:34:08.909Z,20.00
2018-06-22T11:39:08.309Z,20.10
2018-06-22T11:41:37.421Z,20.10
2018-06-22T11:44:05.935Z,20.20
2018-06-22T11:46:34.606Z,20.20
2018-06-22T11:49:03.078Z,20.30
2018-06-22T11:51:31.545Z,20.30
2018-06-22T11:54:00.017Z,20.30
2018-06-22T11:56:28.504Z,20.30
2018-06-22T11:58:56.954Z,20.30
2018-06-22T12:01:25.409Z,20.40
2018-06-22T12:03:54.152Z,20.40
2018-06-22T12:06:22.629Z,20.40
2018-06-22T12:08:51.093Z,20.40
2018-06-22T12:11:19.542Z,20.30
2018-06-22T12:13:48.034Z,20.30
2018-06-22T12:16:16.523Z,20.20
2018-06-22T12:18:45.045Z,20.10
2018-06-22T12:21:13.822Z,20.10
2018-06-22T12:23:42.325Z,20.10
2018-06-22T12:26:10.793Z,20.10
2018-06-22T12:28:39.253Z,20.10
2018-06-22T12:31:07.757Z,20.10
2018-06-22T12:33:36.210Z,20.10
2018-06-22T12:36:04.966Z,20.20
2018-06-22T12:38:33.433Z,20.20
2018-06-22T12:41:01.887Z,20.20
2018-06-22T12:43:30.477Z,20.10
2018-06-22T12:45:58.926Z,20.10
2018-06-22T12:48:27.370Z,20.00
2018-06-22T12:50:55.825Z,20.00
2018-06-22T12:53:24.289Z,20.00
2018-06-22T12:55:52.767Z,19.90
2018-06-22T12:58:21.399Z,19.90
2018-06-22T13:00:49.864Z,19.80
2018-06-22T13:03:18.619Z,19.80
2018-06-22T13:05:47.101Z,19.80
2018-06-22T13:08:15.561Z,19.90
2018-06-22T13:10:44.040Z,19.90
2018-06-22T13:13:12.481Z,19.90
2018-06-22T13:15:40.949Z,19.90
2018-06-22T13:18:09.409Z,20.00
2018-06-22T13:20:37.904Z,20.20
2018-06-22T13:23:06.373Z,20.30
2018-06-22T13:25:34.850Z,20.40
2018-06-22T13:28:03.450Z,20.70
2018-06-22T13:30:32.137Z,21.10
2018-06-22T13:33:00.826Z,21.40
2018-06-22T13:35:29.302Z,21.50
2018-06-22T13:37:57.781Z,21.40
2018-06-22T13:40:26.256Z,21.40
2018-06-22T13:42:54.714Z,21.30
2018-06-22T13:45:23.170Z,21.30
2018-06-22T13:47:51.630Z,21.10
2018-06-22T13:50:20.070Z,21.20
2018-06-22T13:52:48.563Z,21.20
2018-06-22T13:55:17.083Z,21.10
2018-06-22T13:57:45.546Z,21.10
2018-06-22T14:00:14.024Z,21.00
2018-06-22T14:02:42.531Z,21.00
2018-06-22T14:05:16.181Z,20.90
2018-06-22T14:07:44.641Z,20.90
2018-06-22T14:10:13.101Z,20.70
2018-06-22T14:12:41.574Z,20.70
2018-06-22T14:15:10.051Z,20.50
2018-06-22T14:17:38.501Z,20.40
2018-06-22T14:20:07.040Z,20.50
2018-06-22T14:22:35.490Z,20.50
2018-06-22T14:25:04.386Z,20.40
2018-06-22T14:27:32.848Z,20.40
2018-06-22T14:30:01.309Z,20.20
2018-06-22T14:32:29.847Z,20.20
2018-06-22T14:34:58.346Z,20.10
2018-06-22T14:37:26.792Z,20.10
2018-06-22T14:39:55.322Z,20.00
2018-06-22T14:42:23.755Z,20.00
2018-06-22T14:44:52.245Z,19.90
2018-06-22T14:47:20.757Z,19.90
2018-06-22T14:49:49.596Z,19.80
2018-06-22T14:52:18.045Z,19.70
2018-06-22T14:54:51.845Z,19.80
2018-06-22T14:58:24.415Z,19.70
2018-06-22T15:00:58.197Z,19.60
2018-06-22T15:03:31.987Z,19.60
2018-06-22T15:06:05.761Z,19.50
2018-06-22T15:08:34.206Z,19.40
2018-06-22T15:11:02.665Z,19.40
2018-06-22T15:13:31.113Z,19.40
2018-06-22T15:16:00.601Z,19.30
2018-06-22T15:18:29.194Z,19.30
2018-06-22T15:23:25.841Z,19.10
2018-06-22T15:25:54.929Z,18.80
2018-06-22T15:28:23.828Z,18.50
2018-06-22T15:33:25.884Z,17.80
2018-06-22T15:35:59.995Z,17.70
2018-06-22T15:38:33.711Z,17.60
2018-06-22T15:41:07.461Z,17.60
2018-06-22T15:43:41.441Z,17.70
2018-06-22T15:48:49.689Z,18.20
2018-06-22T15:52:23.365Z,18.50
2018-06-22T15:54:59.080Z,18.50
2018-06-22T15:57:27.585Z,18.30
2018-06-22T15:59:56.116Z,18.00
2018-06-22T16:02:29.889Z,17.90
2018-06-22T16:04:58.356Z,17.90
2018-06-22T16:07:26.818Z,17.80
2018-06-22T16:10:02.205Z,17.70
2018-06-22T16:12:37.227Z,17.80
2018-06-22T16:15:13.609Z,17.80
2018-06-22T16:17:47.657Z,17.70
2018-06-22T16:20:21.545Z,17.70
2018-06-22T16:22:56.391Z,17.80
2018-06-22T16:25:30.138Z,18.10
2018-06-22T16:28:00.093Z,18.40
2018-06-22T16:30:28.976Z,18.30
2018-06-22T16:32:57.421Z,18.20
2018-06-22T16:35:26.346Z,18.10
2018-06-22T16:37:54.885Z,18.00
2018-06-22T16:40:23.364Z,17.90
2018-06-22T16:42:51.880Z,17.80
2018-06-22T16:45:20.345Z,17.80
2018-06-22T16:47:48.812Z,17.90
2018-06-22T16:50:17.357Z,17.90
2018-06-22T16:52:45.811Z,17.90
2018-06-22T16:55:14.301Z,18.00
2018-06-22T16:57:42.825Z,18.00
2018-06-22T17:00:11.345Z,17.80
2018-06-22T17:02:39.815Z,17.80
2018-06-22T17:05:08.837Z,17.70
2018-06-22T17:07:42.729Z,17.70
2018-06-22T17:10:16.532Z,17.70
2018-06-22T17:12:50.451Z,17.60
2018-06-22T17:15:24.165Z,17.50
2018-06-22T17:17:57.895Z,17.40
2018-06-22T17:20:26.370Z,17.30
2018-06-22T17:22:54.830Z,17.20
2018-06-22T17:25:23.321Z,17.20
2018-06-22T17:30:19.996Z,17.00
2018-06-22T17:35:16.625Z,16.90
2018-06-22T17:37:45.061Z,16.80
2018-06-22T17:40:13.581Z,16.70
2018-06-22T17:42:42.061Z,16.70
2018-06-22T17:45:10.553Z,16.60
2018-06-22T17:47:39.001Z,16.50
2018-06-22T17:50:13.777Z,16.40
2018-06-22T17:52:42.239Z,16.40
2018-06-22T17:55:10.739Z,16.20
2018-06-22T17:57:39.193Z,16.10
2018-06-22T18:01:16.880Z,16.00
2018-06-22T18:03:50.805Z,15.90
2018-06-22T18:09:59.191Z,15.40
2018-06-22T18:12:32.983Z,15.10
2018-06-22T18:15:01.426Z,15.00
2018-06-22T18:17:29.873Z,15.10
2018-06-22T18:19:58.420Z,15.10
2018-06-22T18:22:26.805Z,15.00
2018-06-22T18:24:55.305Z,14.70
2018-06-22T18:27:23.867Z,14.70
2018-06-22T18:29:52.337Z,14.70
2018-06-22T18:32:20.821Z,14.60
2018-06-22T18:34:49.273Z,14.60
2018-06-22T18:37:17.810Z,14.50
2018-06-22T18:39:46.273Z,14.40
2018-06-22T18:42:14.721Z,14.40
2018-06-22T18:44:43.174Z,14.40
2018-06-22T18:47:11.669Z,14.40
2018-06-22T18:49:40.207Z,14.40
2018-06-22T18:52:13.925Z,14.50
2018-06-22T18:54:47.685Z,14.50
2018-06-22T18:57:21.469Z,14.40
2018-06-22T18:59:56.092Z,14.40
2018-06-22T19:03:32.842Z,14.50
2018-06-22T19:06:01.308Z,14.50
2018-06-22T19:08:29.783Z,14.60
2018-06-22T19:10:58.236Z,14.60
2018-06-22T19:13:26.705Z,14.70
2018-06-22T19:15:55.142Z,14.70
2018-06-22T19:18:23.607Z,14.80
2018-06-22T19:20:52.081Z,14.90
2018-06-22T19:23:20.524Z,14.90
2018-06-22T19:25:48.969Z,14.70
2018-06-22T19:28:17.441Z,14.60
2018-06-22T19:30:45.963Z,14.60
2018-06-22T19:33:14.437Z,14.60
2018-06-22T19:35:42.908Z,14.60
2018-06-22T19:38:11.389Z,14.60
2018-06-22T19:40:39.869Z,14.50
2018-06-22T19:43:12.533Z,14.40
2018-06-22T19:45:46.388Z,14.40
2018-06-22T19:48:20.440Z,14.40
2018-06-22T19:50:54.081Z,14.30
2018-06-22T19:53:27.909Z,14.20
2018-06-22T19:55:56.394Z,14.30
2018-06-22T19:58:24.881Z,14.20
2018-06-22T20:00:53.313Z,14.30
2018-06-22T20:03:21.816Z,14.30
2018-06-22T20:05:50.267Z,14.40
2018-06-22T20:08:18.746Z,14.50
2018-06-22T20:10:47.215Z,14.50
2018-06-22T20:13:15.677Z,14.50
2018-06-22T20:15:44.225Z,14.40
2018-06-22T20:18:12.716Z,14.50
2018-06-22T20:20:41.457Z,14.50
2018-06-22T20:23:09.951Z,14.60
2018-06-22T20:25:43.655Z,14.70
2018-06-22T20:28:12.126Z,14.60
2018-06-22T20:30:40.649Z,14.70
2018-06-22T20:33:09.161Z,14.70
2018-06-22T20:35:43.065Z,14.70
2018-06-22T20:38:16.845Z,14.60
2018-06-22T20:40:50.661Z,14.60
2018-06-22T20:43:25.237Z,14.60
2018-06-22T20:45:56.209Z,14.50
2018-06-22T20:48:30.131Z,14.60
2018-06-22T20:50:58.607Z,14.60
2018-06-22T20:53:27.149Z,14.60
2018-06-22T20:55:55.670Z,14.60
2018-06-22T20:58:24.162Z,14.60
2018-06-22T21:00:52.625Z,14.60
2018-06-22T21:03:21.433Z,14.60
2018-06-22T21:05:49.909Z,14.60
2018-06-22T21:08:18.362Z,14.60
2018-06-22T21:10:46.819Z,14.60
2018-06-22T21:13:15.288Z,14.60
2018-06-22T21:15:43.809Z,14.60
2018-06-22T21:18:12.269Z,14.60
2018-06-22T21:20:46.132Z,14.60
2018-06-22T21:23:14.756Z,14.60
2018-06-22T21:25:43.265Z,14.50
2018-06-22T21:28:17.226Z,14.50
2018-06-22T21:30:52.708Z,14.50
2018-06-22T21:33:26.544Z,14.50
2018-06-22T21:36:00.350Z,14.50
2018-06-22T21:38:34.149Z,14.40
2018-06-22T21:41:02.618Z,14.30
2018-06-22T21:43:31.096Z,14.20
2018-06-22T21:45:59.549Z,14.30
2018-06-22T21:48:28.017Z,14.10
2018-06-22T21:50:56.481Z,14.10
2018-06-22T21:53:24.954Z,14.10
2018-06-22T21:55:53.425Z,14.00
2018-06-22T21:58:21.868Z,14.00
2018-06-22T22:00:50.520Z,14.00
2018-06-22T22:03:18.885Z,14.00
2018-06-22T22:05:47.321Z,14.10
2018-06-22T22:08:15.782Z,14.00
2018-06-22T22:10:49.565Z,14.00
2018-06-22T22:13:18.042Z,14.00
2018-06-22T22:15:46.502Z,14.10
2018-06-22T22:18:14.985Z,14.00
2018-06-22T22:20:43.446Z,14.10
2018-06-22T22:23:11.893Z,14.10
2018-06-22T22:25:40.358Z,14.20
2018-06-22T22:28:08.821Z,14.20
2018-06-22T22:30:37.584Z,14.20
2018-06-22T22:33:06.085Z,14.20
2018-06-22T22:35:34.602Z,14.20
2018-06-22T22:38:03.141Z,14.20
2018-06-22T22:40:31.628Z,14.20
2018-06-22T22:43:00.101Z,14.20
2018-06-22T22:45:28.569Z,14.20
2018-06-22T22:47:57.064Z,14.20
2018-06-22T22:50:25.521Z,14.10
2018-06-22T22:52:54.437Z,14.10
2018-06-22T22:55:23.330Z,14.10
2018-06-22T23:00:20.029Z,14.10
2018-06-22T23:02:48.512Z,14.10
2018-06-22T23:05:16.989Z,14.00
2018-06-22T23:07:45.429Z,14.10
2018-06-22T23:10:13.929Z,14.10
2018-06-22T23:12:42.389Z,14.10
2018-06-22T23:15:10.897Z,14.10
2018-06-22T23:17:39.394Z,14.20
2018-06-22T23:20:07.927Z,14.20
2018-06-22T23:22:47.618Z,14.20
2018-06-22T23:25:16.085Z,14.20
2018-06-22T23:27:44.620Z,14.20
2018-06-22T23:30:13.096Z,14.10
2018-06-22T23:32:41.585Z,14.00
2018-06-22T23:35:10.057Z,14.00
2018-06-22T23:37:38.559Z,13.90
2018-06-22T23:40:07.049Z,13.80
2018-06-22T23:42:35.477Z,13.80
2018-06-22T23:45:03.989Z,13.80
2018-06-22T23:47:32.502Z,13.70
2018-06-22T23:50:00.993Z,13.60
2018-06-22T23:52:29.437Z,13.50
2018-06-22T23:54:57.927Z,13.50
2018-06-22T23:57:26.405Z,13.50
2018-06-22T23:59:54.881Z,13.40
